createdAt,value
2018-12-04T00:02:04.245Z,126.20
2018-12-04T00:04:32.966Z,141.53
2018-12-04T00:07:01.667Z,113.10
2018-12-04T00:09:31.079Z,108.63
2018-12-04T00:11:59.948Z,121.07
2018-12-04T00:14:28.651Z,114.00
2018-12-04T00:16:57.491Z,115.90
2018-12-04T00:19:26.251Z,123.55
2018-12-04T00:21:54.963Z,118.22
2018-12-04T00:24:23.732Z,117.75
2018-12-04T00:26:52.456Z,114.65
2018-12-04T00:29:21.277Z,108.70
2018-12-04T00:31:50.038Z,99.20
2018-12-04T00:34:18.751Z,108.20
2018-12-04T00:36:47.624Z,114.22
2018-12-04T00:39:16.425Z,108.72
2018-12-04T00:41:45.207Z,98.22
2018-12-04T00:44:13.999Z,105.97
2018-12-04T00:46:42.734Z,108.45
2018-12-04T00:49:11.534Z,105.27
2018-12-04T00:51:40.314Z,90.47
2018-12-04T00:54:09.339Z,86.67
2018-12-04T00:56:38.153Z,77.37
2018-12-04T00:59:06.851Z,87.92
2018-12-04T01:01:36.679Z,80.38
2018-12-04T01:04:05.522Z,94.47
2018-12-04T01:06:34.243Z,88.80
2018-12-04T01:09:09.000Z,76.07
2018-12-04T01:11:37.827Z,90.50
2018-12-04T01:14:06.684Z,85.72
2018-12-04T01:16:35.465Z,95.03
2018-12-04T01:19:04.370Z,65.10
2018-12-04T01:21:33.990Z,69.22
2018-12-04T01:24:02.851Z,86.20
2018-12-04T01:26:31.575Z,78.80
2018-12-04T01:29:01.513Z,64.87
2018-12-04T01:31:30.212Z,76.50
2018-12-04T01:33:58.926Z,79.03
2018-12-04T01:36:27.678Z,88.42
2018-12-04T01:38:56.370Z,70.83
2018-12-04T01:41:25.184Z,63.98
2018-12-04T01:43:53.879Z,65.20
2018-12-04T01:46:22.601Z,66.40
2018-12-04T01:48:51.378Z,76.37
2018-12-04T01:51:20.067Z,58.63
2018-12-04T01:53:48.771Z,66.47
2018-12-04T01:56:17.550Z,61.18
2018-12-04T01:58:46.427Z,54.23
2018-12-04T02:01:15.137Z,63.15
2018-12-04T02:03:43.839Z,64.42
2018-12-04T02:06:13.105Z,50.30
2018-12-04T02:08:41.981Z,64.55
2018-12-04T02:11:10.736Z,55.55
2018-12-04T02:13:39.564Z,53.30
2018-12-04T02:16:08.390Z,60.10
2018-12-04T02:18:37.139Z,66.85
2018-12-04T02:21:05.933Z,54.03
2018-12-04T02:23:34.656Z,67.97
2018-12-04T02:26:03.500Z,52.75
2018-12-04T02:28:37.832Z,65.35
2018-12-04T02:31:06.618Z,47.05
2018-12-04T02:33:35.421Z,58.28
2018-12-04T02:36:04.206Z,50.83
2018-12-04T02:38:33.001Z,53.30
2018-12-04T02:41:01.795Z,40.70
2018-12-04T02:43:30.594Z,47.75
2018-12-04T02:45:59.364Z,42.05
2018-12-04T02:48:28.063Z,55.48
2018-12-04T02:50:56.841Z,48.25
2018-12-04T02:53:25.591Z,54.50
2018-12-04T02:55:54.310Z,48.45
2018-12-04T02:58:23.167Z,48.05
2018-12-04T03:00:51.877Z,48.40
2018-12-04T03:03:20.643Z,50.98
2018-12-04T03:05:49.365Z,48.48
2018-12-04T03:08:18.166Z,49.50
2018-12-04T03:10:47.051Z,51.58
2018-12-04T03:13:16.916Z,46.33
2018-12-04T03:15:45.807Z,42.55
2018-12-04T03:18:14.452Z,45.00
2018-12-04T03:20:43.279Z,36.00
2018-12-04T03:23:12.033Z,43.70
2018-12-04T03:25:40.819Z,43.92
2018-12-04T03:28:09.533Z,29.05
2018-12-04T03:30:40.238Z,37.38
2018-12-04T03:33:08.984Z,31.10
2018-12-04T03:35:37.747Z,43.00
2018-12-04T03:38:06.427Z,39.67
2018-12-04T03:40:35.691Z,43.35
2018-12-04T03:43:04.478Z,32.55
2018-12-04T03:45:33.297Z,42.45
2018-12-04T03:48:02.129Z,34.18
2018-12-04T03:50:30.883Z,42.55
2018-12-04T03:52:59.665Z,28.05
2018-12-04T03:55:28.454Z,25.02
2018-12-04T03:57:57.180Z,32.23
2018-12-04T04:00:26.080Z,23.02
2018-12-04T04:02:54.866Z,35.08
2018-12-04T04:05:24.641Z,28.15
2018-12-04T04:07:53.425Z,33.10
2018-12-04T04:10:22.226Z,42.80
2018-12-04T04:12:50.990Z,28.12
2018-12-04T04:15:20.579Z,32.03
2018-12-04T04:17:49.447Z,37.17
2018-12-04T04:20:18.223Z,28.52
2018-12-04T04:22:46.988Z,48.30
2018-12-04T04:25:16.506Z,25.10
2018-12-04T04:27:45.305Z,34.27
2018-12-04T04:30:14.087Z,34.23
2018-12-04T04:32:42.869Z,33.98
2018-12-04T04:35:13.771Z,45.78
2018-12-04T04:37:42.442Z,34.33
2018-12-04T04:40:11.181Z,32.58
2018-12-04T04:42:39.959Z,35.58
2018-12-04T04:45:08.818Z,29.87
2018-12-04T04:47:37.524Z,31.27
2018-12-04T04:50:06.447Z,33.45
2018-12-04T04:52:35.186Z,22.22
2018-12-04T04:55:04.643Z,30.10
2018-12-04T04:57:33.450Z,28.30
2018-12-04T05:00:02.287Z,23.20
2018-12-04T05:02:32.044Z,20.52
2018-12-04T05:05:00.832Z,28.38
2018-12-04T05:07:29.637Z,19.40
2018-12-04T05:09:58.518Z,20.15
2018-12-04T05:12:27.253Z,21.40
2018-12-04T05:14:56.107Z,28.05
2018-12-04T05:17:24.998Z,22.45
2018-12-04T05:19:55.021Z,22.02
2018-12-04T05:22:23.736Z,18.73
2018-12-04T05:24:52.707Z,19.23
2018-12-04T05:27:21.557Z,29.63
2018-12-04T05:29:51.152Z,20.12
2018-12-04T05:32:19.955Z,15.43
2018-12-04T05:34:49.284Z,19.85
2018-12-04T05:37:18.029Z,37.03
2018-12-04T05:39:46.775Z,20.50
2018-12-04T05:42:15.613Z,25.00
2018-12-04T05:44:44.349Z,18.40
2018-12-04T05:47:13.064Z,15.93
2018-12-04T05:49:41.905Z,25.30
2018-12-04T05:52:11.198Z,23.60
2018-12-04T05:54:39.935Z,14.15
2018-12-04T05:57:08.704Z,16.73
2018-12-04T05:59:37.441Z,16.23
2018-12-04T06:02:06.275Z,18.45
2018-12-04T06:04:35.175Z,21.85
2018-12-04T06:07:04.103Z,24.45
2018-12-04T06:09:32.917Z,17.30
2018-12-04T06:12:01.735Z,14.15
2018-12-04T06:14:30.507Z,8.30
2018-12-04T06:16:59.323Z,9.58
2018-12-04T06:19:28.101Z,10.00
2018-12-04T06:21:56.861Z,15.08
2018-12-04T06:24:25.632Z,11.08
2018-12-04T06:26:54.347Z,7.20
2018-12-04T06:29:23.224Z,7.20
2018-12-04T06:31:52.093Z,11.25
2018-12-04T06:34:20.868Z,10.98
2018-12-04T06:36:49.593Z,9.03
2018-12-04T06:39:20.125Z,7.12
2018-12-04T06:41:48.900Z,8.18
2018-12-04T06:44:17.584Z,6.45
2018-12-04T06:46:46.476Z,8.20
2018-12-04T06:49:15.267Z,6.17
2018-12-04T06:51:43.969Z,9.63
2018-12-04T06:54:12.705Z,7.80
2018-12-04T06:56:41.538Z,11.00
2018-12-04T06:59:10.430Z,10.15
2018-12-04T07:01:39.184Z,5.75
2018-12-04T07:04:07.937Z,7.20
2018-12-04T07:06:36.697Z,10.05
2018-12-04T07:09:07.672Z,5.53
2018-12-04T07:11:37.099Z,6.20
2018-12-04T07:14:08.096Z,7.00
2018-12-04T07:16:36.798Z,4.97
2018-12-04T07:19:05.643Z,11.43
2018-12-04T07:21:34.373Z,5.53
2018-12-04T07:24:03.089Z,13.60
2018-12-04T07:26:31.892Z,6.10
2018-12-04T07:29:00.643Z,9.08
2018-12-04T07:31:29.447Z,6.28
2018-12-04T07:33:58.233Z,4.97
2018-12-04T07:36:27.055Z,6.78
2018-12-04T07:38:55.828Z,6.22
2018-12-04T07:41:24.705Z,4.87
2018-12-04T07:43:53.475Z,5.33
2018-12-04T07:46:22.294Z,13.25
2018-12-04T07:48:51.019Z,6.72
2018-12-04T07:51:19.811Z,3.77
2018-12-04T07:53:48.519Z,8.35
2018-12-04T07:56:17.297Z,8.93
2018-12-04T07:58:46.014Z,6.83
2018-12-04T08:01:14.777Z,7.17
2018-12-04T08:03:43.477Z,4.62
2018-12-04T08:06:12.195Z,4.67
2018-12-04T08:08:41.049Z,15.10
2018-12-04T08:11:09.771Z,4.92
2018-12-04T08:13:38.535Z,6.72
2018-12-04T08:16:07.311Z,5.10
2018-12-04T08:18:38.459Z,10.28
2018-12-04T08:21:09.053Z,8.60
2018-12-04T08:23:37.836Z,4.20
2018-12-04T08:26:08.469Z,9.65
2018-12-04T08:28:37.202Z,7.15
2018-12-04T08:31:06.057Z,13.93
2018-12-04T08:33:35.880Z,7.92
2018-12-04T08:36:04.704Z,8.68
2018-12-04T08:38:33.475Z,6.83
2018-12-04T08:41:02.243Z,6.00
2018-12-04T08:43:30.962Z,4.28
2018-12-04T08:45:59.728Z,6.22
2018-12-04T08:48:28.537Z,7.53
2018-12-04T08:50:57.861Z,7.35
2018-12-04T08:53:26.714Z,6.12
2018-12-04T08:55:55.471Z,6.67
2018-12-04T08:58:24.266Z,8.08
2018-12-04T09:00:53.088Z,5.53
2018-12-04T09:03:21.877Z,8.98
2018-12-04T09:05:51.198Z,6.45
2018-12-04T09:08:20.838Z,8.30
2018-12-04T09:10:49.629Z,3.95
2018-12-04T09:13:18.420Z,8.40
2018-12-04T09:15:48.284Z,3.55
2018-12-04T09:18:17.762Z,6.25
2018-12-04T09:20:46.672Z,10.03
2018-12-04T09:23:15.580Z,7.58
2018-12-04T09:25:44.419Z,8.50
2018-12-04T09:28:13.725Z,6.85
2018-12-04T09:30:42.480Z,8.03
2018-12-04T09:33:11.709Z,4.75
2018-12-04T09:35:40.581Z,5.10
2018-12-04T09:38:09.282Z,9.20
2018-12-04T09:40:38.015Z,6.55
2018-12-04T09:43:06.751Z,6.95
2018-12-04T09:45:35.470Z,4.78
2018-12-04T09:48:04.563Z,4.50
2018-12-04T09:50:33.314Z,3.87
2018-12-04T09:53:05.198Z,4.25
2018-12-04T09:55:34.889Z,5.53
2018-12-04T09:58:03.737Z,2.70
2018-12-04T10:00:32.534Z,2.87
2018-12-04T10:03:01.264Z,3.22
2018-12-04T10:05:30.006Z,2.62
2018-12-04T10:07:58.713Z,3.62
2018-12-04T10:10:27.496Z,5.97
2018-12-04T10:12:57.964Z,3.70
2018-12-04T10:15:28.607Z,7.58
2018-12-04T10:17:57.495Z,4.12
2018-12-04T10:20:26.482Z,3.33
2018-12-04T10:22:55.225Z,5.33
2018-12-04T10:25:24.120Z,5.35
2018-12-04T10:27:52.946Z,13.98
2018-12-04T10:30:21.676Z,49.25
2018-12-04T10:32:51.965Z,84.05
2018-12-04T10:35:21.150Z,130.15
2018-12-04T10:37:49.835Z,263.05
2018-12-04T10:40:18.574Z,328.58
2018-12-04T10:42:47.921Z,378.77
2018-12-04T10:45:19.114Z,447.75
2018-12-04T10:47:50.817Z,492.77
2018-12-04T10:50:20.327Z,584.00
2018-12-04T10:52:50.772Z,539.87
2018-12-04T10:55:19.710Z,584.25
2018-12-04T10:57:48.478Z,580.95
2018-12-04T11:00:22.689Z,604.38
2018-12-04T11:02:53.475Z,650.17
2018-12-04T11:05:22.248Z,597.90
2018-12-04T11:07:50.972Z,609.22
2018-12-04T11:10:19.707Z,720.27
2018-12-04T11:12:48.529Z,767.00
2018-12-04T11:15:17.252Z,698.58
2018-12-04T11:17:46.002Z,829.75
2018-12-04T11:20:16.021Z,720.77
2018-12-04T11:22:44.871Z,683.42
2018-12-04T11:25:13.741Z,631.17
2018-12-04T11:27:43.508Z,696.17
2018-12-04T11:30:13.011Z,668.15
2018-12-04T11:32:43.027Z,710.90
2018-12-04T11:35:11.824Z,616.80
2018-12-04T11:37:40.587Z,612.12
2018-12-04T11:40:09.458Z,644.52
2018-12-04T11:42:38.186Z,632.33
2018-12-04T11:45:07.126Z,569.83
2018-12-04T11:47:35.946Z,561.83
2018-12-04T11:50:05.017Z,612.17
2018-12-04T11:52:33.809Z,587.12
2018-12-04T11:55:02.664Z,603.95
2018-12-04T11:57:31.535Z,576.67
2018-12-04T12:00:00.423Z,584.50
2018-12-04T12:02:29.147Z,600.80
2018-12-04T12:04:57.851Z,594.45
2018-12-04T12:07:28.615Z,539.42
2018-12-04T12:09:57.434Z,536.92
2018-12-04T12:12:26.250Z,515.30
2018-12-04T12:14:55.040Z,538.95
2018-12-04T12:17:23.937Z,495.00
2018-12-04T12:19:52.707Z,514.05
2018-12-04T12:22:21.431Z,479.20
2018-12-04T12:24:50.278Z,484.35
2018-12-04T12:27:19.070Z,516.27
2018-12-04T12:29:47.813Z,534.95
2018-12-04T12:32:16.607Z,449.23
2018-12-04T12:34:45.390Z,504.90
2018-12-04T12:37:14.207Z,485.85
2018-12-04T12:39:44.002Z,429.55
2018-12-04T12:42:14.407Z,455.52
2018-12-04T12:44:43.143Z,486.28
2018-12-04T12:47:12.018Z,459.75
2018-12-04T12:49:40.762Z,409.63
2018-12-04T12:52:10.455Z,396.65
2018-12-04T12:54:39.283Z,383.60
2018-12-04T12:57:08.145Z,420.35
2018-12-04T12:59:36.861Z,422.50
2018-12-04T13:02:05.667Z,369.95
2018-12-04T13:04:34.550Z,391.40
2018-12-04T13:07:03.364Z,392.82
2018-12-04T13:09:32.194Z,365.98
2018-12-04T13:12:01.069Z,386.32
2018-12-04T13:14:29.861Z,364.42
2018-12-04T13:16:58.925Z,353.70
2018-12-04T13:19:27.709Z,308.65
2018-12-04T13:21:56.529Z,312.20
2018-12-04T13:24:25.299Z,312.63
2018-12-04T13:26:54.197Z,323.05
2018-12-04T13:29:22.963Z,298.70
2018-12-04T13:31:51.700Z,324.27
2018-12-04T13:34:20.515Z,289.90
2018-12-04T13:36:49.239Z,284.00
2018-12-04T13:39:18.028Z,327.65
2018-12-04T13:41:46.876Z,317.07
2018-12-04T13:44:15.632Z,274.85
2018-12-04T13:46:44.985Z,291.52
2018-12-04T13:49:13.802Z,325.68
2018-12-04T13:51:42.726Z,283.20
2018-12-04T13:54:11.631Z,281.70
2018-12-04T13:56:41.985Z,273.57
2018-12-04T13:59:10.676Z,250.93
2018-12-04T14:01:39.578Z,237.82
2018-12-04T14:04:08.334Z,252.50
2018-12-04T14:06:37.916Z,238.05
2018-12-04T14:09:07.091Z,266.48
2018-12-04T14:11:36.960Z,260.45
2018-12-04T14:14:05.686Z,244.47
2018-12-04T14:16:35.273Z,250.57
2018-12-04T14:19:04.150Z,171.30
2018-12-04T14:21:32.964Z,175.95
2018-12-04T14:24:01.787Z,203.45
2018-12-04T14:26:31.652Z,212.30
2018-12-04T14:29:00.399Z,233.45
2018-12-04T14:31:29.269Z,195.03
2018-12-04T14:33:58.099Z,223.82
2018-12-04T14:36:28.960Z,196.00
2018-12-04T14:38:57.748Z,193.87
2018-12-04T14:41:26.535Z,186.73
2018-12-04T14:43:55.307Z,169.17
2018-12-04T14:46:24.194Z,171.62
2018-12-04T14:48:52.985Z,191.22
2018-12-04T14:51:21.783Z,181.70
2018-12-04T14:53:51.588Z,167.13
2018-12-04T14:56:20.509Z,177.80
2018-12-04T14:58:50.810Z,183.42
2018-12-04T15:01:19.769Z,162.30
2018-12-04T15:03:49.360Z,170.90
2018-12-04T15:06:18.233Z,142.37
2018-12-04T15:08:47.430Z,150.80
2018-12-04T15:11:17.315Z,142.98
2018-12-04T15:13:46.127Z,140.43
2018-12-04T15:16:14.895Z,146.90
2018-12-04T15:18:43.654Z,152.70
2018-12-04T15:21:12.532Z,156.45
2018-12-04T15:23:41.310Z,124.02
2018-12-04T15:26:10.733Z,124.20
2018-12-04T15:28:39.490Z,110.95
2018-12-04T15:31:08.419Z,125.85
2018-12-04T15:33:37.360Z,118.47
2018-12-04T15:36:06.138Z,102.85
2018-12-04T15:38:35.038Z,131.05
2018-12-04T15:41:04.925Z,121.30
2018-12-04T15:43:33.816Z,101.42
2018-12-04T15:46:02.726Z,117.35
2018-12-04T15:48:31.603Z,125.97
2018-12-04T15:51:00.379Z,107.67
2018-12-04T15:53:30.289Z,118.67
2018-12-04T15:55:59.090Z,102.72
2018-12-04T15:58:27.811Z,133.12
2018-12-04T16:00:56.733Z,114.67
2018-12-04T16:03:25.477Z,124.97
2018-12-04T16:05:54.260Z,88.60
2018-12-04T16:08:22.983Z,112.92
2018-12-04T16:10:51.837Z,94.75
2018-12-04T16:13:20.612Z,93.72
2018-12-04T16:15:49.324Z,93.70
2018-12-04T16:18:18.097Z,99.60
2018-12-04T16:20:46.935Z,97.00
2018-12-04T16:23:15.663Z,72.85
2018-12-04T16:25:44.461Z,78.05
2018-12-04T16:28:13.156Z,95.28
2018-12-04T16:30:41.888Z,78.37
2018-12-04T16:33:10.634Z,78.50
2018-12-04T16:35:39.452Z,82.47
2018-12-04T16:38:08.227Z,70.70
2018-12-04T16:40:37.050Z,72.82
2018-12-04T16:43:05.918Z,76.50
2018-12-04T16:45:36.218Z,67.80
2018-12-04T16:48:05.114Z,62.23
2018-12-04T16:50:33.828Z,79.82
2018-12-04T16:53:02.570Z,83.95
2018-12-04T16:55:31.361Z,60.83
2018-12-04T16:58:00.219Z,74.65
2018-12-04T17:00:29.161Z,77.37
2018-12-04T17:02:57.847Z,73.47
2018-12-04T17:05:26.619Z,90.00
2018-12-04T17:07:55.324Z,77.82
2018-12-04T17:10:24.159Z,68.10
2018-12-04T17:12:52.852Z,56.88
2018-12-04T17:15:21.616Z,62.20
2018-12-04T17:17:50.438Z,43.65
2018-12-04T17:20:19.231Z,41.18
2018-12-04T17:22:48.068Z,66.53
2018-12-04T17:25:16.851Z,44.45
2018-12-04T17:27:45.544Z,41.85
2018-12-04T17:30:14.358Z,38.73
2018-12-04T17:32:43.251Z,33.40
2018-12-04T17:35:12.149Z,33.55
2018-12-04T17:37:40.846Z,36.95
2018-12-04T17:40:09.761Z,45.33
2018-12-04T17:42:38.541Z,33.88
2018-12-04T17:45:07.385Z,39.55
2018-12-04T17:47:36.143Z,45.35
2018-12-04T17:50:05.980Z,34.78
2018-12-04T17:52:34.713Z,25.05
2018-12-04T17:55:03.609Z,21.70
2018-12-04T17:57:32.321Z,47.00
2018-12-04T18:00:01.046Z,42.98
2018-12-04T18:02:31.845Z,38.25
2018-12-04T18:05:00.603Z,31.60
2018-12-04T18:07:31.309Z,44.13
2018-12-04T18:10:00.099Z,80.38
2018-12-04T18:12:28.852Z,43.50
2018-12-04T18:14:59.722Z,31.70
2018-12-04T18:17:28.497Z,39.92
2018-12-04T18:19:57.288Z,45.25
2018-12-04T18:22:26.105Z,50.63
2018-12-04T18:24:54.808Z,34.10
2018-12-04T18:27:23.557Z,34.65
2018-12-04T18:29:52.349Z,36.65
2018-12-04T18:32:21.176Z,42.67
2018-12-04T18:34:49.950Z,39.90
2018-12-04T18:37:18.795Z,31.68
2018-12-04T18:39:47.727Z,32.93
2018-12-04T18:42:16.597Z,33.73
2018-12-04T18:44:45.502Z,28.32
2018-12-04T18:47:14.260Z,25.15
2018-12-04T18:49:42.973Z,45.20
2018-12-04T18:52:11.722Z,37.05
2018-12-04T18:54:40.752Z,41.63
2018-12-04T18:57:09.527Z,39.60
2018-12-04T18:59:38.233Z,30.27
2018-12-04T19:02:08.142Z,45.63
2018-12-04T19:04:37.078Z,35.08
2018-12-04T19:07:06.862Z,30.17
2018-12-04T19:09:36.257Z,46.98
2018-12-04T19:12:04.979Z,31.00
2018-12-04T19:14:34.736Z,38.50
2018-12-04T19:17:03.601Z,37.10
2018-12-04T19:19:32.372Z,33.20
2018-12-04T19:22:01.173Z,18.32
2018-12-04T19:24:30.074Z,17.67
2018-12-04T19:26:58.962Z,33.80
2018-12-04T19:29:27.770Z,11.08
2018-12-04T19:31:56.965Z,27.00
2018-12-04T19:34:25.796Z,23.75
2018-12-04T19:36:54.535Z,27.82
2018-12-04T19:39:23.380Z,18.50
2018-12-04T19:41:52.091Z,19.25
2018-12-04T19:44:20.931Z,23.42
2018-12-04T19:46:49.655Z,18.87
2018-12-04T19:49:18.590Z,16.55
2018-12-04T19:51:47.292Z,16.55
2018-12-04T19:54:16.025Z,9.03
2018-12-04T19:56:44.904Z,8.95
2018-12-04T19:59:13.566Z,11.28
2018-12-04T20:01:42.506Z,19.48
2018-12-04T20:04:11.368Z,19.45
2018-12-04T20:06:40.277Z,13.58
2018-12-04T20:09:10.442Z,17.52
2018-12-04T20:11:41.109Z,20.00
2018-12-04T20:14:09.899Z,10.43
2018-12-04T20:16:38.603Z,21.68
2018-12-04T20:19:07.478Z,12.18
2018-12-04T20:21:36.364Z,14.30
2018-12-04T20:24:05.151Z,22.42
2018-12-04T20:26:33.939Z,20.35
2018-12-04T20:29:04.188Z,13.38
2018-12-04T20:31:33.869Z,25.95
2018-12-04T20:34:03.729Z,9.88
2018-12-04T20:36:32.568Z,19.35
2018-12-04T20:39:01.648Z,19.35
2018-12-04T20:41:31.513Z,16.87
2018-12-04T20:44:00.361Z,12.15
2018-12-04T20:46:29.151Z,19.95
2018-12-04T20:48:57.943Z,57.58
2018-12-04T20:51:26.832Z,173.22
2018-12-04T20:53:55.591Z,232.10
2018-12-04T20:56:25.430Z,305.65
2018-12-04T20:58:54.154Z,304.00
2018-12-04T21:01:22.904Z,312.12
2018-12-04T21:03:51.584Z,279.20
2018-12-04T21:06:20.326Z,292.20
2018-12-04T21:08:49.178Z,315.27
2018-12-04T21:11:17.952Z,310.32
2018-12-04T21:13:46.621Z,313.82
2018-12-04T21:16:15.429Z,334.55
2018-12-04T21:18:45.441Z,333.05
2018-12-04T21:21:14.163Z,290.92
2018-12-04T21:23:43.015Z,305.70
2018-12-04T21:26:11.789Z,289.70
2018-12-04T21:28:42.732Z,280.50
2018-12-04T21:31:17.060Z,294.30
2018-12-04T21:33:51.520Z,261.50
2018-12-04T21:36:25.642Z,260.52
2018-12-04T21:39:00.054Z,265.48
2018-12-04T21:42:35.959Z,274.20
2018-12-04T21:45:10.555Z,267.43
2018-12-04T21:48:14.129Z,249.50
2018-12-04T21:50:43.018Z,252.87
2018-12-04T21:53:11.795Z,239.57
2018-12-04T21:55:40.584Z,245.65
2018-12-04T21:58:09.408Z,217.45
2018-12-04T22:00:38.344Z,211.75
2018-12-04T22:03:07.053Z,230.25
2018-12-04T22:05:35.920Z,231.10
2018-12-04T22:08:04.791Z,198.57
2018-12-04T22:10:33.500Z,211.50
2018-12-04T22:13:02.489Z,244.43
2018-12-04T22:15:31.243Z,211.97
2018-12-04T22:18:00.611Z,193.93
2018-12-04T22:20:30.594Z,216.73
2018-12-04T22:22:59.378Z,178.42
2018-12-04T22:25:28.148Z,202.60
2018-12-04T22:27:57.654Z,175.53
2018-12-04T22:30:26.370Z,176.47
2018-12-04T22:32:55.103Z,155.05
2018-12-04T22:35:23.834Z,158.22
2018-12-04T22:37:52.562Z,147.25
2018-12-04T22:40:21.365Z,167.95
2018-12-04T22:42:50.163Z,156.20
2018-12-04T22:45:26.691Z,146.37
2018-12-04T22:47:55.958Z,167.30
2018-12-04T22:50:24.897Z,130.03
2018-12-04T22:52:53.614Z,158.12
2018-12-04T22:55:22.524Z,160.72
2018-12-04T22:57:51.321Z,154.78
2018-12-04T23:00:29.103Z,115.22
2018-12-04T23:02:59.993Z,125.50
2018-12-04T23:05:28.713Z,132.52
2018-12-04T23:07:57.522Z,146.45
2018-12-04T23:10:26.315Z,146.07
2018-12-04T23:12:55.173Z,123.97
2018-12-04T23:15:24.107Z,118.37
2018-12-04T23:17:52.848Z,109.70
2018-12-04T23:20:21.933Z,112.80
2018-12-04T23:22:50.757Z,107.95
2018-12-04T23:25:19.548Z,109.67
2018-12-04T23:27:48.317Z,124.07
2018-12-04T23:30:17.183Z,122.55
2018-12-04T23:32:46.013Z,90.03
2018-12-04T23:35:14.784Z,114.37
2018-12-04T23:37:43.578Z,85.75
2018-12-04T23:40:12.372Z,85.32
2018-12-04T23:42:41.089Z,83.25
2018-12-04T23:45:10.053Z,100.78
2018-12-04T23:47:39.854Z,92.15
2018-12-04T23:50:08.710Z,94.05
2018-12-04T23:52:38.342Z,96.40
2018-12-04T23:55:07.161Z,102.35
2018-12-04T23:57:36.040Z,93.80
